createdAt,value
2018-05-25T00:01:00.001Z,0.00
2018-05-25T00:02:00.244Z,0.00
2018-05-25T00:03:00.488Z,0.00
2018-05-25T00:04:00.730Z,0.00
2018-05-25T00:05:00.973Z,0.00
2018-05-25T00:06:01.218Z,0.00
2018-05-25T00:07:01.461Z,0.00
2018-05-25T00:08:01.709Z,0.00
2018-05-25T00:09:01.948Z,0.00
2018-05-25T00:10:02.191Z,0.00
2018-05-25T00:11:02.435Z,0.00
2018-05-25T00:12:02.680Z,0.00
2018-05-25T00:13:02.924Z,0.00
2018-05-25T00:14:03.168Z,0.00
2018-05-25T00:15:03.410Z,0.00
2018-05-25T00:16:03.656Z,0.00
2018-05-25T00:17:03.895Z,0.00
2018-05-25T00:18:04.141Z,0.00
2018-05-25T00:19:04.384Z,0.00
2018-05-25T00:20:04.623Z,0.00
2018-05-25T00:21:04.869Z,0.00
2018-05-25T00:22:05.109Z,0.00
2018-05-25T00:23:05.351Z,0.00
2018-05-25T00:24:05.593Z,0.00
2018-05-25T00:25:05.837Z,0.00
2018-05-25T00:26:06.084Z,0.00
2018-05-25T00:27:06.324Z,0.00
2018-05-25T00:28:06.566Z,0.00
2018-05-25T00:29:06.812Z,0.00
2018-05-25T00:30:07.054Z,0.00
2018-05-25T00:31:07.296Z,0.00
2018-05-25T00:32:07.541Z,0.00
2018-05-25T00:33:07.786Z,0.00
2018-05-25T00:34:08.026Z,0.00
2018-05-25T00:35:08.269Z,0.00
2018-05-25T00:36:08.511Z,0.00
2018-05-25T00:37:08.759Z,0.00
2018-05-25T00:38:08.997Z,0.00
2018-05-25T00:39:09.238Z,0.00
2018-05-25T00:40:09.482Z,0.00
2018-05-25T00:41:09.725Z,0.00
2018-05-25T00:42:09.970Z,0.00
2018-05-25T00:43:10.211Z,0.00
2018-05-25T00:44:10.454Z,0.00
2018-05-25T00:45:10.697Z,0.00
2018-05-25T00:46:10.938Z,0.00
2018-05-25T00:47:11.183Z,0.00
2018-05-25T00:48:11.427Z,0.00
2018-05-25T00:49:11.669Z,0.00
2018-05-25T00:50:11.913Z,0.00
2018-05-25T00:51:12.156Z,0.00
2018-05-25T00:52:12.401Z,0.00
2018-05-25T00:53:12.645Z,0.00
2018-05-25T00:54:12.887Z,0.00
2018-05-25T00:55:13.129Z,0.00
2018-05-25T00:56:13.373Z,0.00
2018-05-25T00:57:13.616Z,0.00
2018-05-25T00:58:13.859Z,0.00
2018-05-25T00:59:14.102Z,0.00
2018-05-25T01:00:14.345Z,0.00
2018-05-25T01:01:14.588Z,0.00
2018-05-25T01:02:14.833Z,0.00
2018-05-25T01:03:15.075Z,0.00
2018-05-25T01:04:15.323Z,0.00
2018-05-25T01:05:15.560Z,0.00
2018-05-25T01:06:15.805Z,0.00
2018-05-25T01:07:16.048Z,0.00
2018-05-25T01:08:16.294Z,0.00
2018-05-25T01:09:16.537Z,0.00
2018-05-25T01:10:16.784Z,0.00
2018-05-25T01:11:17.026Z,0.00
2018-05-25T01:12:17.271Z,0.00
2018-05-25T01:13:17.513Z,0.00
2018-05-25T01:14:17.756Z,0.00
2018-05-25T01:15:18.001Z,0.00
2018-05-25T01:16:18.242Z,0.00
2018-05-25T01:17:18.489Z,0.00
2018-05-25T01:18:18.730Z,0.00
2018-05-25T01:19:18.973Z,0.00
2018-05-25T01:20:19.217Z,0.00
2018-05-25T01:21:19.460Z,0.00
2018-05-25T01:22:19.702Z,0.00
2018-05-25T01:23:19.945Z,0.00
2018-05-25T01:24:20.188Z,0.00
2018-05-25T01:25:20.430Z,0.00
2018-05-25T01:26:20.675Z,0.00
2018-05-25T01:27:20.921Z,0.00
2018-05-25T01:28:21.163Z,0.00
2018-05-25T01:29:21.406Z,0.00
2018-05-25T01:30:21.649Z,0.00
2018-05-25T01:31:21.892Z,0.00
2018-05-25T01:32:22.135Z,0.00
2018-05-25T01:33:22.378Z,0.00
2018-05-25T01:34:22.622Z,0.00
2018-05-25T01:35:22.865Z,0.00
2018-05-25T01:36:23.109Z,0.00
2018-05-25T01:37:23.353Z,0.00
2018-05-25T01:38:23.597Z,0.00
2018-05-25T01:39:23.840Z,0.00
2018-05-25T01:40:24.085Z,0.00
2018-05-25T01:41:24.328Z,0.00
2018-05-25T01:42:24.571Z,0.00
2018-05-25T01:43:24.814Z,0.00
2018-05-25T01:44:25.058Z,0.00
2018-05-25T01:45:25.300Z,0.00
2018-05-25T01:46:25.543Z,0.00
2018-05-25T01:47:25.789Z,0.00
2018-05-25T01:48:26.031Z,0.00
2018-05-25T01:49:26.280Z,0.00
2018-05-25T01:50:26.517Z,0.00
2018-05-25T01:51:26.761Z,0.00
2018-05-25T01:52:27.009Z,0.00
2018-05-25T01:53:27.245Z,0.00
2018-05-25T01:54:27.491Z,0.00
2018-05-25T01:55:27.734Z,0.00
2018-05-25T01:56:27.977Z,0.00
2018-05-25T01:57:28.219Z,0.00
2018-05-25T01:58:28.462Z,0.00
2018-05-25T01:59:28.705Z,0.00
2018-05-25T02:00:28.948Z,0.00
2018-05-25T02:01:29.192Z,0.00
2018-05-25T02:02:29.435Z,0.00
2018-05-25T02:03:29.678Z,0.00
2018-05-25T02:04:29.922Z,0.00
2018-05-25T02:05:30.164Z,0.00
2018-05-25T02:06:30.405Z,0.00
2018-05-25T02:07:30.650Z,0.00
2018-05-25T02:08:30.893Z,0.00
2018-05-25T02:09:31.135Z,0.00
2018-05-25T02:10:31.379Z,0.00
2018-05-25T02:11:31.619Z,0.00
2018-05-25T02:12:31.862Z,0.00
2018-05-25T02:13:32.105Z,0.00
2018-05-25T02:14:32.357Z,0.00
2018-05-25T02:15:32.594Z,0.00
2018-05-25T02:16:32.837Z,0.00
2018-05-25T02:17:33.081Z,0.00
2018-05-25T02:18:33.323Z,0.00
2018-05-25T02:19:33.567Z,0.00
2018-05-25T02:20:33.810Z,0.00
2018-05-25T02:21:34.053Z,0.00
2018-05-25T02:22:34.296Z,0.00
2018-05-25T02:23:34.538Z,0.00
2018-05-25T02:24:34.781Z,0.00
2018-05-25T02:25:35.022Z,0.00
2018-05-25T02:26:35.267Z,0.00
2018-05-25T02:27:35.511Z,0.00
2018-05-25T02:28:35.753Z,0.00
2018-05-25T02:29:35.997Z,0.00
2018-05-25T02:30:36.240Z,0.00
2018-05-25T02:31:36.484Z,0.00
2018-05-25T02:32:36.731Z,0.00
2018-05-25T02:33:36.971Z,0.00
2018-05-25T02:34:37.215Z,0.00
2018-05-25T02:35:37.458Z,0.00
2018-05-25T02:36:37.699Z,0.00
2018-05-25T02:37:37.944Z,0.00
2018-05-25T02:38:38.214Z,0.00
2018-05-25T02:39:38.429Z,0.00
2018-05-25T02:40:38.672Z,0.00
2018-05-25T02:41:38.914Z,0.00
2018-05-25T02:42:39.170Z,0.00
2018-05-25T02:43:39.402Z,0.00
2018-05-25T02:44:39.646Z,0.00
2018-05-25T02:45:39.892Z,0.00
2018-05-25T02:46:40.131Z,0.00
2018-05-25T02:47:40.373Z,0.00
2018-05-25T02:48:40.617Z,0.00
2018-05-25T02:49:40.859Z,0.00
2018-05-25T02:50:41.104Z,0.00
2018-05-25T02:51:41.349Z,0.00
2018-05-25T02:52:41.592Z,0.00
2018-05-25T02:53:41.839Z,0.00
2018-05-25T02:54:42.081Z,0.00
2018-05-25T02:55:42.324Z,0.00
2018-05-25T02:56:42.565Z,0.00
2018-05-25T02:57:42.810Z,0.00
2018-05-25T02:58:43.052Z,0.00
2018-05-25T02:59:43.291Z,0.00
2018-05-25T03:00:43.540Z,0.00
2018-05-25T03:01:43.784Z,0.00
2018-05-25T03:02:44.026Z,0.00
2018-05-25T03:03:44.268Z,0.00
2018-05-25T03:04:44.511Z,0.00
2018-05-25T03:05:44.754Z,0.00
2018-05-25T03:06:45.023Z,0.00
2018-05-25T03:07:45.246Z,0.00
2018-05-25T03:08:45.484Z,0.00
2018-05-25T03:09:45.728Z,0.00
2018-05-25T03:10:45.972Z,0.00
2018-05-25T03:11:46.215Z,0.00
2018-05-25T03:12:46.460Z,5.63
2018-05-25T03:13:46.702Z,5.63
2018-05-25T03:14:46.943Z,5.63
2018-05-25T03:15:47.188Z,5.63
2018-05-25T03:16:47.431Z,5.63
2018-05-25T03:17:47.673Z,5.63
2018-05-25T03:18:47.918Z,5.63
2018-05-25T03:19:48.162Z,5.63
2018-05-25T03:20:48.406Z,11.25
2018-05-25T03:21:48.649Z,11.25
2018-05-25T03:22:48.891Z,11.25
2018-05-25T03:23:49.137Z,11.25
2018-05-25T03:24:49.381Z,11.25
2018-05-25T03:25:49.624Z,11.25
2018-05-25T03:26:49.880Z,16.88
2018-05-25T03:27:50.114Z,16.88
2018-05-25T03:28:50.359Z,16.88
2018-05-25T03:29:50.602Z,16.88
2018-05-25T03:30:50.846Z,22.50
2018-05-25T03:31:51.089Z,22.50
2018-05-25T03:32:51.331Z,22.50
2018-05-25T03:33:51.576Z,22.50
2018-05-25T03:34:51.821Z,22.50
2018-05-25T03:35:52.068Z,22.50
2018-05-25T03:36:52.312Z,28.13
2018-05-25T03:37:52.556Z,28.13
2018-05-25T03:38:52.799Z,28.13
2018-05-25T03:39:53.044Z,28.13
2018-05-25T03:40:53.287Z,28.13
2018-05-25T03:41:53.529Z,33.75
2018-05-25T03:42:53.774Z,33.75
2018-05-25T03:43:54.017Z,33.75
2018-05-25T03:44:54.263Z,39.38
2018-05-25T03:45:54.503Z,39.38
2018-05-25T03:46:54.748Z,39.38
2018-05-25T03:47:54.992Z,45.00
2018-05-25T03:48:55.234Z,45.00
2018-05-25T03:49:55.477Z,45.00
2018-05-25T03:50:55.721Z,45.00
2018-05-25T03:51:55.963Z,50.63
2018-05-25T03:52:56.205Z,50.63
2018-05-25T03:53:56.448Z,50.63
2018-05-25T03:54:56.691Z,56.25
2018-05-25T03:55:56.936Z,56.25
2018-05-25T03:56:57.180Z,61.88
2018-05-25T03:57:57.425Z,61.88
2018-05-25T03:58:57.667Z,67.50
2018-05-25T03:59:57.910Z,67.50
2018-05-25T04:00:58.154Z,73.13
2018-05-25T04:01:58.397Z,73.13
2018-05-25T04:02:58.643Z,78.75
2018-05-25T04:03:58.886Z,78.75
2018-05-25T04:04:59.115Z,78.75
2018-05-25T04:05:59.359Z,78.75
2018-05-25T04:06:59.603Z,78.75
2018-05-25T04:07:59.847Z,84.38
2018-05-25T04:09:00.092Z,84.38
2018-05-25T04:10:00.333Z,84.38
2018-05-25T04:11:00.577Z,84.38
2018-05-25T04:12:00.823Z,84.38
2018-05-25T04:13:01.064Z,84.38
2018-05-25T04:14:01.307Z,84.38
2018-05-25T04:15:01.551Z,84.38
2018-05-25T04:16:01.798Z,84.38
2018-05-25T04:17:02.042Z,84.38
2018-05-25T04:18:02.285Z,84.38
2018-05-25T04:19:02.532Z,84.38
2018-05-25T04:20:02.779Z,90.00
2018-05-25T04:21:03.019Z,90.00
2018-05-25T04:22:03.263Z,90.00
2018-05-25T04:23:03.506Z,90.00
2018-05-25T04:24:03.750Z,90.00
2018-05-25T04:25:03.993Z,90.00
2018-05-25T04:26:04.257Z,90.00
2018-05-25T04:27:04.483Z,95.63
2018-05-25T04:28:04.729Z,95.63
2018-05-25T04:29:04.972Z,95.63
2018-05-25T04:30:05.214Z,95.63
2018-05-25T04:31:05.463Z,95.63
2018-05-25T04:32:05.704Z,101.25
2018-05-25T04:33:05.948Z,101.25
2018-05-25T04:34:06.195Z,106.88
2018-05-25T04:35:06.438Z,106.88
2018-05-25T04:36:06.674Z,106.88
2018-05-25T04:37:06.938Z,106.88
2018-05-25T04:38:07.181Z,106.88
2018-05-25T04:39:07.424Z,112.50
2018-05-25T04:40:07.669Z,112.50
2018-05-25T04:41:07.912Z,112.50
2018-05-25T04:42:08.154Z,112.50
2018-05-25T04:43:08.400Z,118.13
2018-05-25T04:44:08.643Z,118.13
2018-05-25T04:45:08.886Z,118.13
2018-05-25T04:46:09.135Z,118.13
2018-05-25T04:47:09.375Z,118.13
2018-05-25T04:48:09.619Z,118.13
2018-05-25T04:49:09.862Z,118.13
2018-05-25T04:50:10.106Z,118.13
2018-05-25T04:51:10.349Z,123.75
2018-05-25T04:52:10.593Z,123.75
2018-05-25T04:53:10.838Z,123.75
2018-05-25T04:54:11.081Z,129.38
2018-05-25T04:55:11.327Z,135.00
2018-05-25T04:56:11.571Z,135.00
2018-05-25T04:57:11.814Z,140.63
2018-05-25T04:58:12.059Z,146.25
2018-05-25T04:59:12.304Z,151.88
2018-05-25T05:00:12.545Z,151.88
2018-05-25T05:01:12.792Z,163.13
2018-05-25T05:02:13.037Z,163.13
2018-05-25T05:03:13.280Z,163.13
2018-05-25T05:04:13.524Z,168.75
2018-05-25T05:05:13.773Z,168.75
2018-05-25T05:06:14.013Z,168.75
2018-05-25T05:07:14.255Z,168.75
2018-05-25T05:08:14.500Z,168.75
2018-05-25T05:09:14.744Z,174.38
2018-05-25T05:10:14.990Z,174.38
2018-05-25T05:11:15.239Z,180.00
2018-05-25T05:12:15.477Z,180.00
2018-05-25T05:13:15.722Z,180.00
2018-05-25T05:14:15.968Z,185.63
2018-05-25T05:15:16.210Z,185.63
2018-05-25T05:16:16.454Z,191.25
2018-05-25T05:17:16.697Z,191.25
2018-05-25T05:18:16.943Z,196.88
2018-05-25T05:19:17.187Z,196.88
2018-05-25T05:20:17.429Z,191.25
2018-05-25T05:21:17.675Z,191.25
2018-05-25T05:22:17.920Z,191.25
2018-05-25T05:23:18.164Z,196.88
2018-05-25T05:24:18.409Z,196.88
2018-05-25T05:25:18.653Z,202.50
2018-05-25T05:26:18.901Z,202.50
2018-05-25T05:27:19.143Z,208.13
2018-05-25T05:28:19.388Z,208.13
2018-05-25T05:29:19.632Z,213.75
2018-05-25T05:30:19.877Z,219.38
2018-05-25T05:31:20.124Z,225.00
2018-05-25T05:32:20.365Z,225.00
2018-05-25T05:33:20.609Z,230.63
2018-05-25T05:34:20.853Z,230.63
2018-05-25T05:35:21.102Z,230.63
2018-05-25T05:36:21.344Z,230.63
2018-05-25T05:37:21.588Z,236.25
2018-05-25T05:38:21.832Z,236.25
2018-05-25T05:39:22.078Z,236.25
2018-05-25T05:40:22.323Z,236.25
2018-05-25T05:41:22.566Z,241.88
2018-05-25T05:42:22.811Z,247.50
2018-05-25T05:43:23.056Z,241.88
2018-05-25T05:44:23.301Z,241.88
2018-05-25T05:45:23.546Z,247.50
2018-05-25T05:46:23.792Z,247.50
2018-05-25T05:47:24.037Z,253.13
2018-05-25T05:48:24.283Z,253.13
2018-05-25T05:49:24.530Z,258.75
2018-05-25T05:50:24.771Z,264.38
2018-05-25T05:51:25.018Z,270.00
2018-05-25T05:52:25.265Z,281.25
2018-05-25T05:53:25.514Z,286.88
2018-05-25T05:54:25.755Z,298.13
2018-05-25T05:55:26.002Z,303.75
2018-05-25T05:56:26.247Z,315.00
2018-05-25T05:57:26.492Z,320.63
2018-05-25T05:58:26.738Z,326.25
2018-05-25T05:59:26.981Z,331.88
2018-05-25T06:00:27.229Z,331.88
2018-05-25T06:01:27.475Z,337.50
2018-05-25T06:02:27.720Z,343.13
2018-05-25T06:03:27.967Z,343.13
2018-05-25T06:04:28.272Z,348.75
2018-05-25T06:05:28.459Z,354.38
2018-05-25T06:06:28.704Z,360.00
2018-05-25T06:07:28.952Z,365.63
2018-05-25T06:08:29.197Z,365.63
2018-05-25T06:09:29.444Z,371.25
2018-05-25T06:10:29.689Z,371.25
2018-05-25T06:11:29.934Z,371.25
2018-05-25T06:12:30.184Z,371.25
2018-05-25T06:13:30.431Z,376.88
2018-05-25T06:14:30.675Z,376.88
2018-05-25T06:15:30.922Z,382.50
2018-05-25T06:16:31.169Z,388.13
2018-05-25T06:17:31.415Z,393.75
2018-05-25T06:18:31.660Z,393.75
2018-05-25T06:19:31.907Z,399.38
2018-05-25T06:20:32.150Z,405.00
2018-05-25T06:21:32.401Z,410.63
2018-05-25T06:22:32.660Z,410.63
2018-05-25T06:23:32.891Z,410.63
2018-05-25T06:24:33.142Z,416.25
2018-05-25T06:25:33.389Z,410.63
2018-05-25T06:26:33.640Z,410.63
2018-05-25T06:27:33.883Z,405.00
2018-05-25T06:28:34.131Z,405.00
2018-05-25T06:29:34.381Z,410.63
2018-05-25T06:30:34.622Z,416.25
2018-05-25T06:31:34.869Z,427.50
2018-05-25T06:32:35.117Z,438.75
2018-05-25T06:33:35.364Z,433.13
2018-05-25T06:34:35.611Z,438.75
2018-05-25T06:35:35.855Z,444.38
2018-05-25T06:36:36.103Z,444.38
2018-05-25T06:37:36.351Z,450.00
2018-05-25T06:38:36.597Z,450.00
2018-05-25T06:39:36.848Z,450.00
2018-05-25T06:40:37.091Z,450.00
2018-05-25T06:41:37.338Z,450.00
2018-05-25T06:42:37.590Z,450.00
2018-05-25T06:43:37.836Z,461.25
2018-05-25T06:44:38.084Z,478.13
2018-05-25T06:45:38.328Z,500.63
2018-05-25T06:46:38.576Z,523.13
2018-05-25T06:47:38.822Z,556.88
2018-05-25T06:48:39.070Z,573.75
2018-05-25T06:49:39.316Z,579.38
2018-05-25T06:50:39.575Z,540.00
2018-05-25T06:51:39.812Z,511.88
2018-05-25T06:52:40.059Z,489.38
2018-05-25T06:53:40.308Z,495.00
2018-05-25T06:54:40.553Z,511.88
2018-05-25T06:55:40.801Z,517.50
2018-05-25T06:56:41.049Z,511.88
2018-05-25T06:57:41.296Z,511.88
2018-05-25T06:58:41.544Z,500.63
2018-05-25T06:59:41.796Z,489.38
2018-05-25T07:00:42.041Z,489.38
2018-05-25T07:01:42.291Z,495.00
2018-05-25T07:02:42.536Z,472.50
2018-05-25T07:03:42.784Z,478.13
2018-05-25T07:04:43.031Z,489.38
2018-05-25T07:05:43.278Z,523.13
2018-05-25T07:06:43.530Z,517.50
2018-05-25T07:07:43.773Z,517.50
2018-05-25T07:08:44.021Z,511.88
2018-05-25T07:09:44.266Z,506.25
2018-05-25T07:10:44.515Z,506.25
2018-05-25T07:11:44.761Z,511.88
2018-05-25T07:12:45.009Z,517.50
2018-05-25T07:13:45.257Z,517.50
2018-05-25T07:14:45.503Z,506.25
2018-05-25T07:15:45.752Z,500.63
2018-05-25T07:16:46.001Z,506.25
2018-05-25T07:17:46.263Z,511.88
2018-05-25T07:18:46.494Z,506.25
2018-05-25T07:19:46.746Z,511.88
2018-05-25T07:20:46.994Z,523.13
2018-05-25T07:21:47.243Z,551.25
2018-05-25T07:22:47.490Z,545.63
2018-05-25T07:23:47.738Z,573.75
2018-05-25T07:24:47.989Z,590.63
2018-05-25T07:25:48.237Z,601.88
2018-05-25T07:26:48.500Z,585.00
2018-05-25T07:27:48.733Z,579.38
2018-05-25T07:28:48.976Z,562.50
2018-05-25T07:29:49.241Z,545.63
2018-05-25T07:30:49.491Z,534.38
2018-05-25T07:31:49.737Z,523.13
2018-05-25T07:32:49.987Z,528.75
2018-05-25T07:33:50.236Z,551.25
2018-05-25T07:34:50.488Z,573.75
2018-05-25T07:35:50.735Z,590.63
2018-05-25T07:36:50.984Z,601.88
2018-05-25T07:37:51.232Z,641.25
2018-05-25T07:38:51.480Z,697.50
2018-05-25T07:39:51.730Z,765.00
2018-05-25T07:40:51.978Z,753.75
2018-05-25T07:41:52.224Z,753.75
2018-05-25T07:42:52.474Z,742.50
2018-05-25T07:43:52.722Z,776.25
2018-05-25T07:44:52.971Z,787.50
2018-05-25T07:46:00.849Z,815.63
2018-05-25T07:46:53.526Z,736.88
2018-05-25T07:47:53.776Z,720.00
2018-05-25T07:48:54.024Z,753.75
2018-05-25T07:49:54.272Z,759.38
2018-05-25T07:50:54.522Z,781.88
2018-05-25T07:51:54.771Z,635.63
2018-05-25T07:52:55.021Z,798.75
2018-05-25T07:53:55.274Z,669.38
2018-05-25T07:54:55.523Z,860.63
2018-05-25T07:55:55.775Z,748.13
2018-05-25T07:56:56.024Z,826.88
2018-05-25T07:57:56.274Z,810.00
2018-05-25T07:58:56.522Z,635.63
2018-05-25T07:59:56.771Z,596.25
2018-05-25T08:00:57.021Z,658.13
2018-05-25T08:01:57.271Z,680.63
2018-05-25T08:02:57.523Z,663.75
2018-05-25T08:03:57.772Z,618.75
2018-05-25T08:04:58.022Z,556.88
2018-05-25T08:05:58.274Z,556.88
2018-05-25T08:06:58.527Z,624.38
2018-05-25T08:07:58.776Z,1018.13
2018-05-25T08:08:59.024Z,720.00
2018-05-25T08:09:59.273Z,770.63
2018-05-25T08:10:59.531Z,1001.25
2018-05-25T08:11:59.831Z,961.88
2018-05-25T08:13:00.028Z,1012.50
2018-05-25T08:14:00.277Z,1147.50
2018-05-25T08:15:00.529Z,1198.13
2018-05-25T08:16:00.780Z,950.63
2018-05-25T08:17:01.027Z,911.25
2018-05-25T08:18:01.277Z,1068.75
2018-05-25T08:19:01.524Z,826.88
2018-05-25T08:20:01.774Z,911.25
2018-05-25T08:21:02.032Z,905.63
2018-05-25T08:22:02.350Z,770.63
2018-05-25T08:23:02.533Z,697.50
2018-05-25T08:24:02.783Z,720.00
2018-05-25T08:25:03.033Z,748.13
2018-05-25T08:26:03.284Z,703.13
2018-05-25T08:27:03.537Z,646.88
2018-05-25T08:28:03.788Z,601.88
2018-05-25T08:29:04.039Z,624.38
2018-05-25T08:30:04.290Z,641.25
2018-05-25T08:31:04.540Z,641.25
2018-05-25T08:32:04.795Z,680.63
2018-05-25T08:33:05.048Z,759.38
2018-05-25T08:34:05.305Z,843.75
2018-05-25T08:35:05.546Z,871.88
2018-05-25T08:36:05.795Z,933.75
2018-05-25T08:37:06.047Z,905.63
2018-05-25T08:38:06.297Z,866.25
2018-05-25T08:39:06.547Z,838.13
2018-05-25T08:40:06.797Z,821.25
2018-05-25T08:41:07.047Z,776.25
2018-05-25T08:42:07.298Z,708.75
2018-05-25T08:43:07.551Z,675.00
2018-05-25T08:44:07.801Z,652.50
2018-05-25T08:45:08.049Z,635.63
2018-05-25T08:46:08.299Z,635.63
2018-05-25T08:47:08.548Z,652.50
2018-05-25T08:48:08.798Z,669.38
2018-05-25T08:49:09.049Z,669.38
2018-05-25T08:50:09.299Z,680.63
2018-05-25T08:51:09.549Z,697.50
2018-05-25T08:52:09.800Z,714.38
2018-05-25T08:53:10.052Z,731.25
2018-05-25T08:54:10.300Z,748.13
2018-05-25T08:55:10.561Z,793.13
2018-05-25T08:56:10.801Z,838.13
2018-05-25T08:57:11.050Z,911.25
2018-05-25T08:58:11.506Z,916.88
2018-05-25T08:59:11.550Z,1153.13
2018-05-25T09:00:11.798Z,1226.25
2018-05-25T09:01:12.062Z,1158.75
2018-05-25T09:02:12.298Z,1243.13
2018-05-25T09:03:12.548Z,1288.13
2018-05-25T09:04:12.801Z,1316.25
2018-05-25T09:05:13.052Z,1333.13
2018-05-25T09:06:13.316Z,1321.88
2018-05-25T09:07:13.567Z,1248.75
2018-05-25T09:08:13.819Z,1231.88
2018-05-25T09:09:14.071Z,1243.13
2018-05-25T09:10:14.323Z,1226.25
2018-05-25T09:11:14.576Z,1265.63
2018-05-25T09:12:14.827Z,1276.88
2018-05-25T09:13:15.079Z,1288.13
2018-05-25T09:14:15.334Z,1293.75
2018-05-25T09:15:15.586Z,1271.25
2018-05-25T09:16:15.839Z,1260.00
2018-05-25T09:17:16.092Z,1248.75
2018-05-25T09:18:16.346Z,1231.88
2018-05-25T09:19:16.603Z,1226.25
2018-05-25T09:20:16.854Z,1243.13
2018-05-25T09:21:17.109Z,1243.13
2018-05-25T09:22:17.364Z,1237.50
2018-05-25T09:23:17.622Z,1226.25
2018-05-25T09:24:17.876Z,1215.00
2018-05-25T09:25:18.162Z,1203.75
2018-05-25T09:26:18.419Z,1198.13
2018-05-25T09:27:18.675Z,1192.50
2018-05-25T09:28:18.932Z,1181.25
2018-05-25T09:29:19.185Z,1164.38
2018-05-25T09:30:19.440Z,1158.75
2018-05-25T09:31:19.695Z,1153.13
2018-05-25T09:32:19.948Z,1158.75
2018-05-25T09:33:20.202Z,1153.13
2018-05-25T09:34:20.457Z,1153.13
2018-05-25T09:35:20.711Z,1158.75
2018-05-25T09:36:20.997Z,1181.25
2018-05-25T09:37:21.218Z,1203.75
2018-05-25T09:38:21.472Z,1226.25
2018-05-25T09:39:21.729Z,1243.13
2018-05-25T09:40:21.986Z,1276.88
2018-05-25T09:41:22.236Z,1316.25
2018-05-25T09:42:22.490Z,1344.38
2018-05-25T09:43:22.754Z,1338.75
2018-05-25T09:44:23.001Z,1260.00
2018-05-25T09:45:23.258Z,1271.25
2018-05-25T09:46:23.516Z,1231.88
2018-05-25T09:47:23.764Z,1119.38
2018-05-25T09:48:24.020Z,1057.50
2018-05-25T09:49:24.272Z,1023.75
2018-05-25T09:50:24.529Z,1001.25
2018-05-25T09:51:24.783Z,1018.13
2018-05-25T09:52:25.037Z,1063.13
2018-05-25T09:53:25.296Z,1220.63
2018-05-25T09:54:33.183Z,2632.50
2018-05-25T09:55:25.864Z,1456.88
2018-05-25T09:56:26.117Z,1856.25
2018-05-25T09:57:26.371Z,1535.63
2018-05-25T09:58:26.625Z,1828.13
2018-05-25T09:59:26.884Z,2463.75
2018-05-25T10:00:27.133Z,2666.25
2018-05-25T10:01:27.391Z,2716.88
2018-05-25T10:02:27.642Z,2756.25
2018-05-25T10:03:27.897Z,1957.50
2018-05-25T10:04:28.153Z,2604.38
2018-05-25T10:05:28.409Z,2621.25
2018-05-25T10:06:28.665Z,2441.25
2018-05-25T10:07:28.922Z,2171.25
2018-05-25T10:08:29.175Z,1136.25
2018-05-25T10:09:29.431Z,1929.38
2018-05-25T10:10:29.687Z,2835.00
2018-05-25T10:11:29.940Z,2818.13
2018-05-25T10:12:30.196Z,2823.75
2018-05-25T10:13:30.451Z,2829.38
2018-05-25T10:14:30.706Z,2812.50
2018-05-25T10:15:30.962Z,2840.63
2018-05-25T10:16:31.218Z,2857.50
2018-05-25T10:17:31.482Z,2784.38
2018-05-25T10:18:31.728Z,2812.50
2018-05-25T10:19:31.985Z,2008.13
2018-05-25T10:20:32.241Z,1299.38
2018-05-25T10:21:32.496Z,2205.00
2018-05-25T10:22:32.752Z,1721.25
2018-05-25T10:23:33.011Z,2491.88
2018-05-25T10:24:33.265Z,2851.88
2018-05-25T10:25:33.523Z,2638.13
2018-05-25T10:26:33.781Z,2643.75
2018-05-25T10:27:34.035Z,2013.75
2018-05-25T10:28:34.302Z,2700.00
2018-05-25T10:29:34.550Z,2745.00
2018-05-25T10:30:34.807Z,2795.63
2018-05-25T10:31:35.063Z,2171.25
2018-05-25T10:32:35.319Z,1417.50
2018-05-25T10:33:35.583Z,1631.25
2018-05-25T10:34:35.834Z,2137.50
2018-05-25T10:35:36.090Z,2238.75
2018-05-25T10:36:36.347Z,2610.00
2018-05-25T10:37:36.603Z,2953.13
2018-05-25T10:38:36.860Z,2981.25
2018-05-25T10:39:37.117Z,2998.13
2018-05-25T10:40:37.372Z,2947.50
2018-05-25T10:41:37.628Z,2925.00
2018-05-25T10:42:37.886Z,2947.50
2018-05-25T10:43:38.141Z,2958.75
2018-05-25T10:44:38.398Z,2930.63
2018-05-25T10:45:38.671Z,2896.88
2018-05-25T10:46:38.915Z,2919.38
2018-05-25T10:47:39.174Z,2930.63
2018-05-25T10:48:39.435Z,2925.00
2018-05-25T10:49:39.691Z,2919.38
2018-05-25T10:50:39.949Z,2970.00
2018-05-25T10:51:40.205Z,3037.50
2018-05-25T10:52:40.466Z,1057.50
2018-05-25T10:53:40.722Z,1136.25
2018-05-25T10:54:40.979Z,1158.75
2018-05-25T10:55:41.234Z,1153.13
2018-05-25T10:56:41.491Z,1198.13
2018-05-25T10:57:41.749Z,1276.88
2018-05-25T10:58:42.006Z,1591.88
2018-05-25T10:59:42.264Z,2362.50
2018-05-25T11:00:42.519Z,1895.63
2018-05-25T11:01:42.781Z,3031.88
2018-05-25T11:02:43.034Z,3290.63
2018-05-25T11:03:43.329Z,3251.25
2018-05-25T11:04:43.555Z,3420.00
2018-05-25T11:05:43.807Z,1333.13
2018-05-25T11:06:44.064Z,1220.63
2018-05-25T11:07:44.322Z,1136.25
2018-05-25T11:08:44.576Z,1113.75
2018-05-25T11:09:44.839Z,1158.75
2018-05-25T11:10:45.100Z,1237.50
2018-05-25T11:11:45.350Z,1586.25
2018-05-25T11:12:45.606Z,1901.25
2018-05-25T11:13:45.864Z,2491.88
2018-05-25T11:14:46.122Z,1344.38
2018-05-25T11:15:46.381Z,1203.75
2018-05-25T11:16:46.637Z,1518.75
2018-05-25T11:17:46.894Z,3465.00
2018-05-25T11:18:47.150Z,2064.38
2018-05-25T11:19:47.409Z,3318.75
2018-05-25T11:20:47.666Z,3273.75
2018-05-25T11:21:47.922Z,3217.50
2018-05-25T11:22:48.177Z,2941.88
2018-05-25T11:23:48.446Z,3150.00
2018-05-25T11:24:48.695Z,3200.63
2018-05-25T11:25:48.952Z,3178.13
2018-05-25T11:26:49.204Z,2070.00
2018-05-25T11:27:49.460Z,1985.63
2018-05-25T11:28:49.716Z,3166.88
2018-05-25T11:29:50.000Z,3240.00
2018-05-25T11:30:50.282Z,3206.25
2018-05-25T11:31:50.532Z,1119.38
2018-05-25T11:32:50.791Z,1141.88
2018-05-25T11:33:51.054Z,1192.50
2018-05-25T11:34:51.312Z,3273.75
2018-05-25T11:35:51.566Z,3200.63
2018-05-25T11:36:51.822Z,2379.38
2018-05-25T11:37:52.079Z,2598.75
2018-05-25T11:38:52.336Z,2418.75
2018-05-25T11:39:52.591Z,2891.25
2018-05-25T11:40:52.849Z,1130.63
2018-05-25T11:41:53.103Z,1080.00
2018-05-25T11:42:53.362Z,1074.38
2018-05-25T11:43:53.617Z,1080.00
2018-05-25T11:44:53.875Z,1068.75
2018-05-25T11:45:54.129Z,1046.25
2018-05-25T11:46:54.389Z,1198.13
2018-05-25T11:47:54.645Z,2711.25
2018-05-25T11:48:54.901Z,2446.88
2018-05-25T11:49:55.157Z,2092.50
2018-05-25T11:50:55.414Z,1743.75
2018-05-25T11:51:55.670Z,1552.50
2018-05-25T11:52:55.932Z,1462.50
2018-05-25T11:53:56.181Z,1434.38
2018-05-25T11:54:56.442Z,1411.88
2018-05-25T11:55:56.691Z,1411.88
2018-05-25T11:56:56.949Z,1423.13
2018-05-25T11:57:57.203Z,1423.13
2018-05-25T11:58:57.456Z,1406.25
2018-05-25T11:59:57.715Z,1417.50
2018-05-25T12:00:57.974Z,1423.13
2018-05-25T12:01:58.232Z,1411.88
2018-05-25T12:02:58.554Z,1395.00
2018-05-25T12:03:58.814Z,1395.00
2018-05-25T12:04:59.072Z,1400.63
2018-05-25T12:05:59.330Z,1389.38
2018-05-25T12:06:59.588Z,1085.63
2018-05-25T12:07:59.847Z,1018.13
2018-05-25T12:09:00.106Z,995.63
2018-05-25T12:10:00.408Z,995.63
2018-05-25T12:11:00.665Z,984.38
2018-05-25T12:12:00.921Z,956.25
2018-05-25T12:13:01.170Z,939.38
2018-05-25T12:14:01.429Z,922.50
2018-05-25T12:15:01.686Z,928.13
2018-05-25T12:16:01.945Z,945.00
2018-05-25T12:17:02.199Z,984.38
2018-05-25T12:18:02.452Z,1040.63
2018-05-25T12:19:02.708Z,1102.50
2018-05-25T12:20:03.002Z,1147.50
2018-05-25T12:21:03.263Z,1260.00
2018-05-25T12:22:03.518Z,1260.00
2018-05-25T12:23:03.773Z,1254.38
2018-05-25T12:24:04.026Z,1226.25
2018-05-25T12:25:04.329Z,1271.25
2018-05-25T12:26:04.607Z,1288.13
2018-05-25T12:27:04.908Z,1293.75
2018-05-25T12:28:05.223Z,1305.00
2018-05-25T12:29:05.450Z,1299.38
2018-05-25T12:30:05.742Z,1271.25
2018-05-25T12:31:05.999Z,1248.75
2018-05-25T12:32:06.251Z,1220.63
2018-05-25T12:33:06.505Z,1186.88
2018-05-25T12:34:06.785Z,1130.63
2018-05-25T12:35:07.017Z,916.88
2018-05-25T12:36:07.270Z,922.50
2018-05-25T12:37:07.524Z,950.63
2018-05-25T12:38:07.781Z,978.75
2018-05-25T12:39:08.038Z,1006.88
2018-05-25T12:40:08.291Z,1153.13